ARKANSAS RIVER NAVIGATION REPORT
  LITTLE ROCK DISTRICT - U.S. ARMY CORPS OF ENGINEERS
  GENERATED: 21 NOV 2017 @  6:05
 
  NOTE: These data are not guaranteed to be valid or correct.
        RELEASES AND FLOWS ARE IN THOUSANDS OF CFS
  _____________________________________________________________________________
 
                  20NOV     20NOV      20NOV           21NOV          21NOV
                  @1200     @2400     AVERAGE      LATEST OBSERVED    PRECIP.
                  HOURS     HOURS      FLOW         DATA AND TIME     (7A-7A)
  _____________________________________________________________________________
 
  LD13 HW-ELEV    392.37    391.81                391.81  @   5:00      0.00
  LD13 TW-ELEV    372.81    371.56                371.64  @   5:00
  LD13 RELEASE     15.4       0.0       6.0         0.0   @   5:00
 
  OZA.L&D HW-ELEV 372.08    371.97                371.99  @   5:00      0.00
  OZA.L&D TW-ELEV 338.90    337.75                337.57  @   5:00
  OZA.L&D RELEASE  19.6        .3       3.5          .3   @   5:00
 
  DRD.L&D HW-ELEV 337.40    337.71                337.75  @   5:00      0.00
  DRD.L&D TW-ELEV 285.71    285.70                285.56  @   5:00
  DRD.L&D RELEASE   0.0       0.0       4.1         0.0   @   5:00
 
  LD09 HW-ELEV    285.56    285.65                285.41  @   5:00      0.00
  LD09 TW-ELEV    265.35    265.28                265.23  @   5:00
  LD09 RELEASE      -.1       2.9        .6         2.9   @   5:00
 
  LD08 HW-ELEV    265.26    265.38                265.40  @   5:00      0.00
  LD08 TW-ELEV    249.13    249.37                249.42  @   5:00
  LD08 RELEASE      0.0       4.3        .7         5.3   @   5:00
 
  LD07 HW-ELEV    249.20    249.22                249.30  @   5:00      0.00
  LD07 TW-ELEV    231.26    231.23                231.23  @   5:00
  LD07 RELEASE       .1        .1        .3         3.1   @   5:00
 
  LD06 HW-ELEV    231.31    231.25                231.29  @   5:00      0.00
  LD06 TW-ELEV    212.97    212.99                213.03  @   5:00
  LD06 RELEASE      -.1       -.1      -0.0         -.1   @   5:00
 
  LD05 HW-ELEV    213.18    213.22                213.30  @   5:00      0.00
  LD05 TW-ELEV    195.82    195.76                195.77  @   5:00
  LD05 RELEASE       .1        .1        .1          .1   @   5:00
 
  LD04 HW-ELEV    196.15    196.14                196.14  @   5:00      0.00
  LD04 TW-ELEV    182.48    182.44                182.38  @   5:00
  LD04 RELEASE      0.0       0.0       0.0         0.0   @   5:00
 
  LD03 HW-ELEV    176.99    182.22                182.21  @   5:00      0.00
  LD03 TW-ELEV    162.29    162.25                162.28  @   5:00
  LD03 RELEASE       .2        .2        .2          .2   @   5:00
 
  L02 HW-ELEV     162.30    162.26                162.26  @   5:00      0.00
 
  D02 HW-ELEV     162.14    162.16                162.14  @   5:00      0.00
  D02 TW-ELEV     119.34    118.56                118.36  @   5:00
  D02 RELEASE       1.0       1.0        .6         1.0   @   5:00
 
  L01 TW-ELEV     127.64    126.89                126.60  @   5:00      0.00
 
  MPLD HW-ELEV    127.11    126.35                126.04  @   5:00      0.00	
  MPLD TW-ELEV    127.01    126.25                125.94  @   5:00
 
  WREC DIFF.         .53       .54                   .56
  CLARENDON FLOW   10.53     10.50     10.50       10.50  @   5:00
  HELENA STAGE     15.60     14.82                 14.56  @   5:00
  CAIRO STAGE      20.58     20.59                 20.79  @   5:00
  _____________________________________________________________________________